Bosporus — V2QY — position and weather

sailwx.info

Track history (hours):
 
Tides and Currents Weather Stations Pressure Air Temp Water Temp Dewpoint Dewpoint Depression Visibility Wind Speed Wind Dir Waves Ship Positions

Bosporus

Last reported at 2016-Sep-23 17:33 UTC. Time now 2016-Sep-25 02:01 UTC.
Position N 43°21' E 004°58'.

Length 100 m; draft 3.7 m.

Type: Cargo ship. MMSI: 304010802.

Date/timePositionNaut miles runAvg speedWind from/ knotsBaromVisibWave heightAir tempDewpointWater temp
2016-Sep-23 17:33N 43°21' E 004°58'1010.4
2016-Sep-23 16:33N 43°13' E 004°51'  
2016-Sep-18 10:33N 43°25' E 004°56'1 0.5
2016-Sep-18 09:31N 43°25' E 004°57'0 0.0
2016-Sep-18 02:31N 43°25' E 004°57'0 0.0
2016-Sep-18 01:31N 43°25' E 004°57'0 0.0
2016-Sep-18 00:31N 43°25' E 004°57'0 0.0
2016-Sep-17 21:31N 43°25' E 004°57'0 0.0
2016-Sep-17 20:31N 43°25' E 004°57'0 0.0
2016-Sep-17 19:16N 43°25' E 004°57'0 0.0
2016-Sep-17 13:28N 43°25' E 004°57'0 0.0
2016-Sep-17 12:31N 43°25' E 004°57'0 0.0
2016-Sep-17 10:31N 43°25' E 004°57'0 0.0
2016-Sep-17 09:31N 43°25' E 004°57'0 0.0
2016-Sep-17 08:31N 43°25' E 004°57'0 0.0
2016-Sep-17 07:31N 43°25' E 004°57'0 0.0
2016-Sep-17 05:31N 43°25' E 004°57'0 0.0
2016-Sep-17 04:31N 43°25' E 004°57'0 0.0
2016-Sep-17 00:31N 43°25' E 004°57'0 0.0
2016-Sep-16 17:13N 43°25' E 004°57'0 0.0
2016-Sep-16 15:25N 43°25' E 004°57'0 0.0
2016-Sep-16 12:31N 43°25' E 004°57'2 0.7
2016-Sep-16 09:33N 43°23' E 004°58'  
2016-Sep-13 20:23N 43°02' E 004°35'22 9.8
2016-Sep-13 18:06N 43°19' E 004°54'4 7.5
2016-Sep-13 17:34N 43°23' E 004°55'  
Track history (hours):
 
Tides and Currents Weather Stations Pressure Air Temp Water Temp Dewpoint Dewpoint Depression Visibility Wind Speed Wind Dir Waves Ship Positions

Bosporus

Last reported at 2016-Sep-23 17:33 UTC. Time now 2016-Sep-25 02:01 UTC.
Position N 43°21' E 004°58'.

Length 100 m; draft 3.7 m.

Type: Cargo ship. MMSI: 304010802.

Date/timePositionNaut miles runAvg speedWind from/ knotsBaromVisibWave heightAir tempDewpointWater temp
2016-Sep-23 17:33N 43°21' E 004°58'1010.4
2016-Sep-23 16:33N 43°13' E 004°51'  
2016-Sep-18 10:33N 43°25' E 004°56'1 0.5
2016-Sep-18 09:31N 43°25' E 004°57'0 0.0
2016-Sep-18 02:31N 43°25' E 004°57'0 0.0
2016-Sep-18 01:31N 43°25' E 004°57'0 0.0
2016-Sep-18 00:31N 43°25' E 004°57'0 0.0
2016-Sep-17 21:31N 43°25' E 004°57'0 0.0
2016-Sep-17 20:31N 43°25' E 004°57'0 0.0
2016-Sep-17 19:16N 43°25' E 004°57'0 0.0
2016-Sep-17 13:28N 43°25' E 004°57'0 0.0
2016-Sep-17 12:31N 43°25' E 004°57'0 0.0
2016-Sep-17 10:31N 43°25' E 004°57'0 0.0
2016-Sep-17 09:31N 43°25' E 004°57'0 0.0
2016-Sep-17 08:31N 43°25' E 004°57'0 0.0
2016-Sep-17 07:31N 43°25' E 004°57'0 0.0
2016-Sep-17 05:31N 43°25' E 004°57'0 0.0
2016-Sep-17 04:31N 43°25' E 004°57'0 0.0
2016-Sep-17 00:31N 43°25' E 004°57'0 0.0
2016-Sep-16 17:13N 43°25' E 004°57'0 0.0
2016-Sep-16 15:25N 43°25' E 004°57'0 0.0
2016-Sep-16 12:31N 43°25' E 004°57'2 0.7
2016-Sep-16 09:33N 43°23' E 004°58'  
2016-Sep-13 20:23N 43°02' E 004°35'22 9.8
2016-Sep-13 18:06N 43°19' E 004°54'4 7.5
2016-Sep-13 17:34N 43°23' E 004°55'  

Dump ship's entire track history